createdAt,value
2023-03-29T00:00:43.655Z,67.53
2023-03-29T00:03:50.086Z,67.69
2023-03-29T00:06:57.997Z,67.06
2023-03-29T00:10:05.798Z,65.77
2023-03-29T00:13:11.897Z,64.43
2023-03-29T00:16:17.953Z,61.76
2023-03-29T00:19:24.273Z,60.55
2023-03-29T00:22:32.246Z,58.51
2023-03-29T00:25:38.610Z,57.67
2023-03-29T00:28:44.939Z,56.74
2023-03-29T00:31:54.157Z,59.11
2023-03-29T00:35:01.128Z,61.66
2023-03-29T00:38:08.781Z,62.67
2023-03-29T00:41:15.595Z,63.58
2023-03-29T00:45:09.419Z,65.03
2023-03-29T00:48:18.881Z,66.85
2023-03-29T00:51:29.141Z,70.38
2023-03-29T00:54:38.101Z,73.20
2023-03-29T00:57:46.940Z,72.96
2023-03-29T01:00:58.053Z,71.10
2023-03-29T01:04:08.646Z,70.30
2023-03-29T01:07:21.830Z,69.79
2023-03-29T01:10:35.759Z,69.95
2023-03-29T01:13:45.533Z,70.38
2023-03-29T01:16:52.076Z,71.73
2023-03-29T01:20:08.057Z,73.02
2023-03-29T01:23:28.720Z,72.15
2023-03-29T01:26:46.878Z,69.71
2023-03-29T01:29:58.738Z,68.19
2023-03-29T01:33:11.628Z,66.79
2023-03-29T01:36:23.522Z,64.81
2023-03-29T01:39:29.752Z,63.20
2023-03-29T01:42:46.782Z,63.76
2023-03-29T01:46:01.550Z,64.34
2023-03-29T01:49:13.602Z,64.97
2023-03-29T01:52:28.997Z,64.85
2023-03-29T01:55:39.575Z,64.32
2023-03-29T01:58:48.607Z,64.58
2023-03-29T02:02:00.356Z,65.19
2023-03-29T02:05:10.086Z,64.88
2023-03-29T02:08:18.824Z,65.60
2023-03-29T02:11:27.146Z,66.52
2023-03-29T02:14:33.582Z,64.67
2023-03-29T02:17:41.363Z,62.15
2023-03-29T02:20:50.121Z,61.37
2023-03-29T02:23:58.998Z,61.97
2023-03-29T02:27:06.304Z,62.72
2023-03-29T02:30:14.661Z,64.59
2023-03-29T02:33:26.677Z,65.17
2023-03-29T02:36:40.436Z,64.46
2023-03-29T02:39:49.943Z,63.32
2023-03-29T02:42:58.121Z,62.38
2023-03-29T02:46:06.508Z,61.51
2023-03-29T02:49:14.402Z,61.88
2023-03-29T02:52:25.934Z,60.90
2023-03-29T02:55:34.926Z,60.31
2023-03-29T02:58:41.186Z,61.70
2023-03-29T03:01:47.737Z,62.90
2023-03-29T03:04:55.396Z,61.75
2023-03-29T03:08:01.401Z,61.27
2023-03-29T03:11:08.642Z,59.77
2023-03-29T03:14:14.878Z,59.16
2023-03-29T03:17:20.938Z,58.54
2023-03-29T03:20:28.273Z,57.50
2023-03-29T03:23:35.558Z,57.50
2023-03-29T03:26:41.867Z,56.50
2023-03-29T03:29:48.769Z,54.87
2023-03-29T03:32:55.766Z,54.38
2023-03-29T03:36:06.305Z,53.51
2023-03-29T03:39:12.424Z,53.84
2023-03-29T03:42:18.673Z,53.40
2023-03-29T03:45:26.090Z,53.99
2023-03-29T03:48:32.577Z,54.05
2023-03-29T03:51:42.013Z,54.16
2023-03-29T03:54:50.331Z,53.54
2023-03-29T03:57:56.398Z,53.44
2023-03-29T04:01:02.926Z,53.19
2023-03-29T04:04:09.557Z,53.70
2023-03-29T04:07:18.066Z,54.72
2023-03-29T04:10:24.711Z,54.86
2023-03-29T04:13:31.598Z,55.01
2023-03-29T04:16:38.119Z,56.34
2023-03-29T04:19:44.495Z,58.86
2023-03-29T04:22:52.108Z,63.11
2023-03-29T04:25:58.484Z,71.80
2023-03-29T04:29:04.877Z,74.55
2023-03-29T04:32:11.804Z,73.21
2023-03-29T04:35:18.083Z,73.41
2023-03-29T04:38:26.954Z,71.89
2023-03-29T04:41:33.432Z,69.37
2023-03-29T04:44:41.535Z,66.62
2023-03-29T04:47:48.115Z,66.03
2023-03-29T04:50:55.876Z,64.54
2023-03-29T04:54:03.412Z,62.14
2023-03-29T04:57:10.114Z,57.81
2023-03-29T05:00:17.307Z,56.43
2023-03-29T05:03:23.354Z,54.73
2023-03-29T05:06:30.149Z,53.27
2023-03-29T05:09:37.646Z,51.48
2023-03-29T05:12:43.810Z,51.89
2023-03-29T05:15:49.901Z,52.00
2023-03-29T05:18:56.281Z,51.26
2023-03-29T05:22:02.491Z,50.00
2023-03-29T05:25:12.583Z,48.73
2023-03-29T05:28:18.568Z,47.91
2023-03-29T05:31:25.022Z,47.85
2023-03-29T05:34:32.064Z,48.06
2023-03-29T05:37:39.140Z,47.69
2023-03-29T05:40:46.647Z,47.11
2023-03-29T05:43:53.382Z,46.98
2023-03-29T05:46:59.861Z,47.19
2023-03-29T05:50:09.521Z,46.39
2023-03-29T05:53:16.000Z,47.21
2023-03-29T05:56:23.786Z,47.62
2023-03-29T05:59:29.988Z,48.70
2023-03-29T06:02:36.878Z,48.65
2023-03-29T06:05:43.145Z,49.77
2023-03-29T06:08:49.510Z,50.67
2023-03-29T06:11:57.721Z,51.36
2023-03-29T06:15:05.167Z,52.39
2023-03-29T06:18:11.682Z,52.01
2023-03-29T06:21:18.008Z,52.02
2023-03-29T06:24:25.233Z,49.65
2023-03-29T06:27:33.349Z,47.94
2023-03-29T06:30:39.808Z,48.11
2023-03-29T06:33:46.779Z,47.70
2023-03-29T06:36:55.419Z,45.54
2023-03-29T06:40:07.026Z,45.36
2023-03-29T06:43:14.977Z,44.21
2023-03-29T06:46:21.746Z,43.81
2023-03-29T06:49:28.035Z,43.20
2023-03-29T06:52:34.403Z,43.89
2023-03-29T06:55:41.440Z,45.26
2023-03-29T06:58:49.231Z,45.20
2023-03-29T07:01:55.963Z,44.49
2023-03-29T07:05:02.665Z,43.41
2023-03-29T07:08:16.624Z,43.94
2023-03-29T07:11:23.285Z,43.67
2023-03-29T07:14:31.055Z,44.85
2023-03-29T07:17:37.153Z,43.90
2023-03-29T07:20:43.348Z,43.04
2023-03-29T07:23:50.375Z,43.58
2023-03-29T07:27:04.167Z,43.96
2023-03-29T07:30:16.637Z,43.34
2023-03-29T07:33:23.267Z,43.30
2023-03-29T07:36:29.774Z,42.78
2023-03-29T07:39:37.337Z,43.71
2023-03-29T07:42:43.986Z,43.43
2023-03-29T07:45:52.191Z,43.03
2023-03-29T07:48:58.556Z,42.31
2023-03-29T07:52:08.336Z,43.25
2023-03-29T07:55:15.578Z,42.52
2023-03-29T07:58:24.699Z,41.48
2023-03-29T08:01:32.368Z,41.95
2023-03-29T08:04:39.107Z,42.00
2023-03-29T08:07:46.900Z,41.66
2023-03-29T08:10:54.384Z,40.66
2023-03-29T08:14:00.834Z,40.28
2023-03-29T08:17:08.754Z,41.12
2023-03-29T08:20:17.119Z,39.98
2023-03-29T08:23:23.869Z,39.82
2023-03-29T08:26:30.082Z,39.30
2023-03-29T08:29:36.394Z,40.16
2023-03-29T08:32:48.622Z,39.36
2023-03-29T08:35:57.416Z,39.13
2023-03-29T08:39:03.876Z,39.90
2023-03-29T08:42:26.732Z,39.07
2023-03-29T08:45:43.742Z,37.95
2023-03-29T08:48:58.194Z,38.75
2023-03-29T08:52:14.555Z,37.47
2023-03-29T08:55:28.445Z,38.46
2023-03-29T08:58:36.552Z,38.51
2023-03-29T09:01:44.539Z,38.04
2023-03-29T09:04:57.649Z,37.94
2023-03-29T09:08:04.118Z,38.77
2023-03-29T09:11:23.655Z,37.63
2023-03-29T09:14:44.810Z,36.16
2023-03-29T09:18:02.833Z,36.59
2023-03-29T09:21:18.478Z,38.02
2023-03-29T09:24:42.832Z,35.85
2023-03-29T09:27:54.620Z,37.14
2023-03-29T09:31:07.718Z,37.08
2023-03-29T09:34:19.592Z,35.74
2023-03-29T09:37:33.771Z,35.87
2023-03-29T09:40:44.160Z,35.32
2023-03-29T09:43:52.585Z,35.50
2023-03-29T09:47:07.658Z,35.47
2023-03-29T09:50:30.166Z,34.83
2023-03-29T09:53:38.683Z,34.72
2023-03-29T09:56:45.621Z,34.47
2023-03-29T09:59:53.254Z,34.53
2023-03-29T10:03:00.553Z,34.57
2023-03-29T10:06:11.324Z,33.99
2023-03-29T10:09:22.361Z,34.18
2023-03-29T10:12:29.399Z,34.20
2023-03-29T10:15:35.851Z,34.43
2023-03-29T10:18:44.202Z,34.42
2023-03-29T10:21:51.723Z,33.76
2023-03-29T10:24:59.860Z,34.34
2023-03-29T10:28:08.740Z,33.45
2023-03-29T10:31:20.168Z,33.54
2023-03-29T10:34:28.216Z,33.37
2023-03-29T10:37:35.288Z,33.17
2023-03-29T10:40:47.510Z,33.51
2023-03-29T10:43:54.118Z,31.92
2023-03-29T10:47:10.690Z,32.50
2023-03-29T10:50:19.731Z,31.82
2023-03-29T10:53:30.334Z,32.35
2023-03-29T10:56:42.963Z,32.01
2023-03-29T10:59:55.610Z,31.08
2023-03-29T11:03:20.269Z,32.23
2023-03-29T11:06:36.402Z,32.66
2023-03-29T11:09:51.471Z,31.01
2023-03-29T11:13:06.474Z,31.60
2023-03-29T11:16:22.344Z,30.81
2023-03-29T11:19:46.830Z,30.96
2023-03-29T11:23:01.626Z,30.37
2023-03-29T11:26:17.022Z,30.76
2023-03-29T11:29:30.606Z,30.91
2023-03-29T11:32:49.792Z,31.58
2023-03-29T11:36:04.742Z,30.70
2023-03-29T11:39:20.766Z,30.72
2023-03-29T11:42:32.462Z,31.27
2023-03-29T11:45:45.675Z,30.78
2023-03-29T11:48:57.162Z,30.49
2023-03-29T11:52:10.486Z,29.47
2023-03-29T11:55:23.013Z,30.32
2023-03-29T11:58:43.924Z,29.98
2023-03-29T12:01:56.448Z,30.42
2023-03-29T12:05:09.208Z,29.81
2023-03-29T12:08:20.300Z,29.36
2023-03-29T12:11:33.098Z,30.29
2023-03-29T12:14:51.089Z,29.73
2023-03-29T12:18:07.149Z,29.73
2023-03-29T12:21:17.319Z,29.47
2023-03-29T12:24:23.870Z,29.39
2023-03-29T12:27:33.979Z,29.57
2023-03-29T12:30:56.016Z,29.62
2023-03-29T12:34:20.588Z,29.33
2023-03-29T12:37:39.227Z,29.87
2023-03-29T12:40:48.552Z,29.70
2023-03-29T12:43:55.479Z,29.29
2023-03-29T12:47:03.300Z,28.51
2023-03-29T12:50:25.667Z,28.32
2023-03-29T12:53:36.111Z,28.77
2023-03-29T12:56:54.931Z,29.15
2023-03-29T13:00:14.164Z,28.11
2023-03-29T13:03:23.577Z,29.00
2023-03-29T13:06:34.572Z,28.74
2023-03-29T13:09:50.482Z,28.57
2023-03-29T13:12:57.944Z,29.03
2023-03-29T13:16:13.820Z,28.67
2023-03-29T13:19:31.855Z,28.50
2023-03-29T13:22:51.935Z,28.18
2023-03-29T13:26:27.310Z,28.92
2023-03-29T13:29:56.874Z,28.21
2023-03-29T13:33:20.257Z,28.90
2023-03-29T13:36:43.342Z,29.22
2023-03-29T13:39:53.758Z,28.95
2023-03-29T13:43:02.106Z,29.35
2023-03-29T13:46:24.683Z,28.89
2023-03-29T13:49:34.260Z,28.25
2023-03-29T13:52:45.867Z,29.35
2023-03-29T13:55:55.359Z,29.38
2023-03-29T13:59:07.474Z,28.45
2023-03-29T14:02:23.337Z,29.27
2023-03-29T14:05:33.182Z,29.53
2023-03-29T14:08:42.633Z,29.40
2023-03-29T14:11:51.568Z,29.38
2023-03-29T14:15:02.673Z,29.69
2023-03-29T14:18:12.385Z,28.85
2023-03-29T14:21:21.168Z,29.25
2023-03-29T14:24:29.641Z,28.06
2023-03-29T14:27:37.887Z,28.27
2023-03-29T14:30:47.947Z,28.61
2023-03-29T14:33:54.848Z,28.83
2023-03-29T14:37:01.098Z,29.67
2023-03-29T14:40:15.533Z,30.21
2023-03-29T14:43:30.054Z,29.27
2023-03-29T14:46:37.060Z,29.69
2023-03-29T14:49:43.673Z,29.17
2023-03-29T14:52:52.574Z,29.79
2023-03-29T14:55:59.593Z,30.17
2023-03-29T14:59:24.468Z,31.04
2023-03-29T15:02:33.339Z,30.83
2023-03-29T15:05:42.278Z,31.61
2023-03-29T15:09:02.089Z,31.79
2023-03-29T15:12:17.482Z,30.96
2023-03-29T15:15:26.310Z,30.81
2023-03-29T15:18:38.689Z,30.49
2023-03-29T15:21:47.939Z,30.51
2023-03-29T15:24:54.103Z,30.16
2023-03-29T15:28:01.687Z,29.98
2023-03-29T15:31:14.479Z,29.91
2023-03-29T15:34:27.664Z,30.21
2023-03-29T15:37:34.385Z,30.09
2023-03-29T15:40:41.236Z,29.72
2023-03-29T15:43:47.608Z,30.45
2023-03-29T15:46:57.790Z,29.58
2023-03-29T15:50:04.308Z,29.78
2023-03-29T15:53:15.516Z,30.31
2023-03-29T15:56:23.109Z,30.71
2023-03-29T15:59:29.462Z,30.15
2023-03-29T16:02:37.222Z,30.18
2023-03-29T16:05:44.129Z,30.15
2023-03-29T16:08:50.453Z,30.64
2023-03-29T16:11:56.757Z,30.49
2023-03-29T16:15:03.222Z,30.72
2023-03-29T16:18:11.089Z,30.76
2023-03-29T16:21:20.372Z,30.75
2023-03-29T16:24:29.173Z,30.41
2023-03-29T16:27:35.885Z,30.77
2023-03-29T16:30:42.075Z,30.71
2023-03-29T16:33:50.673Z,30.18
2023-03-29T16:36:57.165Z,30.11
2023-03-29T16:40:07.379Z,29.67
2023-03-29T16:43:16.407Z,30.11
2023-03-29T16:46:23.468Z,30.16
2023-03-29T16:49:31.377Z,30.61
2023-03-29T16:52:37.989Z,30.58
2023-03-29T16:55:44.314Z,30.99
2023-03-29T16:58:50.885Z,31.16
2023-03-29T17:01:57.188Z,30.81
2023-03-29T17:05:06.157Z,30.66
2023-03-29T17:08:12.363Z,31.55
2023-03-29T17:11:23.283Z,31.89
2023-03-29T17:14:29.771Z,31.62
2023-03-29T17:17:37.610Z,31.88
2023-03-29T17:20:45.629Z,31.76
2023-03-29T17:23:51.739Z,32.20
2023-03-29T17:26:58.305Z,32.32
2023-03-29T17:30:05.008Z,32.09
2023-03-29T17:33:11.536Z,32.60
2023-03-29T17:36:24.308Z,32.60
2023-03-29T17:39:30.918Z,33.50
2023-03-29T17:42:37.040Z,33.50
2023-03-29T17:45:43.459Z,33.30
2023-03-29T17:48:51.387Z,33.79
2023-03-29T17:51:59.925Z,34.18
2023-03-29T17:55:11.105Z,34.36
2023-03-29T17:58:17.186Z,34.37
2023-03-29T18:01:23.512Z,34.65
2023-03-29T18:04:29.940Z,35.20
2023-03-29T18:07:38.524Z,35.35
2023-03-29T18:10:45.040Z,35.28
2023-03-29T18:13:51.874Z,35.53
2023-03-29T18:16:58.270Z,36.15
2023-03-29T18:20:09.500Z,36.56
2023-03-29T18:23:17.146Z,37.07
2023-03-29T18:26:23.565Z,37.85
2023-03-29T18:29:30.053Z,38.35
2023-03-29T18:32:36.426Z,38.33
2023-03-29T18:35:48.699Z,39.15
2023-03-29T18:38:56.551Z,39.44
2023-03-29T18:42:03.256Z,39.17
2023-03-29T18:45:11.058Z,40.07
2023-03-29T18:48:17.505Z,40.18
2023-03-29T18:51:24.214Z,40.71
2023-03-29T18:54:31.874Z,40.56
2023-03-29T18:57:38.295Z,40.39
2023-03-29T19:00:44.861Z,40.89
2023-03-29T19:03:51.044Z,40.62
2023-03-29T19:06:57.357Z,40.72
2023-03-29T19:10:06.760Z,40.89
2023-03-29T19:13:13.264Z,41.01
2023-03-29T19:16:20.255Z,41.04
2023-03-29T19:19:27.372Z,41.33
2023-03-29T19:22:34.047Z,41.14
2023-03-29T19:25:43.526Z,41.50
2023-03-29T19:28:49.810Z,41.69
2023-03-29T19:31:57.131Z,41.64
2023-03-29T19:35:04.456Z,42.23
2023-03-29T19:38:10.941Z,42.00
2023-03-29T19:41:19.277Z,42.29
2023-03-29T19:44:25.926Z,42.11
2023-03-29T19:47:32.419Z,42.45
2023-03-29T19:50:40.818Z,42.72
2023-03-29T19:53:47.634Z,42.44
2023-03-29T19:56:57.527Z,41.95
2023-03-29T20:00:08.106Z,42.38
2023-03-29T20:03:15.911Z,42.12
2023-03-29T20:06:22.762Z,42.23
2023-03-29T20:09:29.051Z,42.56
2023-03-29T20:12:37.140Z,42.20
2023-03-29T20:15:47.118Z,41.64
2023-03-29T20:18:54.048Z,41.74
2023-03-29T20:22:00.870Z,41.60
2023-03-29T20:25:07.745Z,41.35
2023-03-29T20:28:15.444Z,41.27
2023-03-29T20:31:21.886Z,41.26
2023-03-29T20:34:28.356Z,41.66
2023-03-29T20:37:34.928Z,41.61
2023-03-29T20:40:42.125Z,41.76
2023-03-29T20:43:58.511Z,41.75
2023-03-29T20:47:06.744Z,41.61
2023-03-29T20:50:13.178Z,41.52
2023-03-29T20:53:20.621Z,41.36
2023-03-29T20:56:27.820Z,41.45
2023-03-29T20:59:35.797Z,41.62
2023-03-29T21:02:42.077Z,41.88
2023-03-29T21:05:49.094Z,42.54
2023-03-29T21:08:55.428Z,43.06
2023-03-29T21:12:01.594Z,42.94
2023-03-29T21:15:13.479Z,43.54
2023-03-29T21:18:20.209Z,43.66
2023-03-29T21:21:28.876Z,44.41
2023-03-29T21:24:36.584Z,44.56
2023-03-29T21:27:43.384Z,45.04
2023-03-29T21:30:51.441Z,45.20
2023-03-29T21:33:57.899Z,45.15
2023-03-29T21:37:04.362Z,45.50
2023-03-29T21:40:12.479Z,45.87
2023-03-29T21:43:18.855Z,46.20
2023-03-29T21:46:26.471Z,46.20
2023-03-29T21:49:32.711Z,46.65
2023-03-29T21:52:39.213Z,46.25
2023-03-29T21:55:45.888Z,47.00
2023-03-29T21:58:51.987Z,47.19
2023-03-29T22:01:59.569Z,47.71
2023-03-29T22:05:07.116Z,47.57
2023-03-29T22:08:13.632Z,48.21
2023-03-29T22:11:21.304Z,48.61
2023-03-29T22:14:28.620Z,48.69
2023-03-29T22:17:36.429Z,48.28
2023-03-29T22:20:42.809Z,48.56
2023-03-29T22:23:50.682Z,48.41
2023-03-29T22:26:57.269Z,48.39
2023-03-29T22:30:04.320Z,48.45
2023-03-29T22:33:12.334Z,48.85
2023-03-29T22:36:20.260Z,48.14
2023-03-29T22:39:27.000Z,48.77
2023-03-29T22:42:33.713Z,48.66
2023-03-29T22:45:40.210Z,48.58
2023-03-29T22:48:48.245Z,48.47
2023-03-29T22:51:54.972Z,48.65
2023-03-29T22:55:01.746Z,49.35
2023-03-29T22:58:08.012Z,49.31
2023-03-29T23:01:16.345Z,48.99
2023-03-29T23:04:24.136Z,49.79
2023-03-29T23:07:30.808Z,50.02
2023-03-29T23:10:36.875Z,50.34
2023-03-29T23:13:43.517Z,50.07
2023-03-29T23:16:50.630Z,50.18
2023-03-29T23:19:58.526Z,50.36
2023-03-29T23:23:05.038Z,50.72
2023-03-29T23:26:11.338Z,51.22
2023-03-29T23:29:17.725Z,51.17
2023-03-29T23:32:23.969Z,50.79
2023-03-29T23:35:31.538Z,51.78
2023-03-29T23:38:39.786Z,52.16
2023-03-29T23:41:45.981Z,52.62
2023-03-29T23:44:51.900Z,53.66
2023-03-29T23:47:58.688Z,54.27
2023-03-29T23:51:08.052Z,54.41
2023-03-29T23:54:15.432Z,54.43
2023-03-29T23:57:21.781Z,54.84
